Time;durP1;ratioP1;P1;durP2;ratioP2;P2;SDS_P1;SDS_P2;PMS_P1;PMS_P2;Temp;Humidity;BMP_temperature;BMP_pressure;BME280_temperature;BME280_humidity;BME280_pressure;Samples;Min_cycle;Max_cycle;Signal;HPM_P1;HPM_P2
2022/10/25 00:02:16;;;;;;;2.45;0.47;;;13.80;99.90;;;;;;5082753;28;20099;-77
2022/10/25 00:04:41;;;;;;;2.67;0.60;;;13.80;99.90;;;;;;5080980;28;20458;-78
2022/10/25 00:07:07;;;;;;;1.33;0.40;;;13.80;99.90;;;;;;5081556;28;20074;-78
2022/10/25 00:09:33;;;;;;;2.17;0.40;;;13.80;99.90;;;;;;5080724;28;20065;-79
2022/10/25 00:11:59;;;;;;;2.00;0.40;;;13.80;99.90;;;;;;5082707;28;20453;-78
2022/10/25 00:14:24;;;;;;;1.38;0.30;;;13.80;99.90;;;;;;5082084;28;20031;-79
2022/10/25 00:16:50;;;;;;;0.75;0.40;;;13.80;99.90;;;;;;5081243;28;20051;-77
2022/10/25 00:19:16;;;;;;;1.92;0.38;;;13.90;99.90;;;;;;5079801;28;20035;-77
2022/10/25 00:21:41;;;;;;;0.50;0.30;;;13.80;99.90;;;;;;5083419;28;20132;-87
2022/10/25 00:24:09;;;;;;;0.95;0.55;;;13.90;99.90;;;;;;5082967;28;20408;-89
2022/10/25 00:26:35;;;;;;;1.90;0.50;;;13.90;99.90;;;;;;5081998;28;20020;-89
2022/10/25 00:29:01;;;;;;;1.48;0.70;;;13.90;99.90;;;;;;5089063;28;20108;-87
2022/10/25 00:31:26;;;;;;;1.50;0.60;;;13.90;99.90;;;;;;5091924;28;20020;-86
2022/10/25 00:33:52;;;;;;;3.42;0.50;;;13.80;99.90;;;;;;5093211;28;20027;-84
2022/10/25 00:36:20;;;;;;;2.03;0.32;;;13.80;99.90;;;;;;5091628;28;20028;-85
2022/10/25 00:38:46;;;;;;;2.70;0.47;;;13.90;99.90;;;;;;5091472;28;20044;-86
2022/10/25 00:41:14;;;;;;;2.50;0.60;;;13.80;99.90;;;;;;5092116;28;20028;-86
2022/10/25 00:43:43;;;;;;;2.30;0.50;;;13.90;99.90;;;;;;5091775;28;20032;-89
2022/10/25 00:46:27;;;;;;;2.15;0.30;;;13.90;99.90;;;;;;5091750;28;20385;-89
2022/10/25 00:48:59;;;;;;;1.60;0.40;;;13.90;99.90;;;;;;5091309;28;20032;-89
2022/10/25 00:51:34;;;;;;;1.90;0.57;;;13.90;99.90;;;;;;5091331;28;20465;-89
2022/10/25 00:54:00;;;;;;;1.30;0.60;;;13.80;99.90;;;;;;5094020;28;20107;-88
2022/10/25 00:56:30;;;;;;;2.28;0.60;;;13.90;99.90;;;;;;5095502;28;20024;-89
2022/10/25 00:59:00;;;;;;;2.80;0.80;;;13.90;99.90;;;;;;5094370;28;20494;-89
2022/10/25 01:01:26;;;;;;;3.95;0.40;;;13.90;99.90;;;;;;5095920;28;20028;-89
2022/10/25 01:03:55;;;;;;;1.58;0.50;;;13.90;99.90;;;;;;5097630;28;20381;-90
2022/10/25 01:06:42;;;;;;;0.90;0.50;;;14.00;99.90;;;;;;5096345;28;20114;-90
2022/10/25 01:09:11;;;;;;;1.05;0.50;;;13.90;99.90;;;;;;5096127;28;20040;-88
2022/10/25 01:11:37;;;;;;;2.38;0.57;;;13.90;99.90;;;;;;5092426;28;20032;-87
2022/10/25 01:14:08;;;;;;;2.05;0.60;;;13.90;99.90;;;;;;5091920;28;20028;-87
2022/10/25 01:16:47;;;;;;;1.45;0.63;;;14.00;99.90;;;;;;5090863;28;20024;-87
2022/10/25 01:19:26;;;;;;;2.38;0.50;;;14.00;99.90;;;;;;5092905;28;20076;-86
2022/10/25 01:22:00;;;;;;;2.25;0.50;;;14.00;99.90;;;;;;5091407;28;20099;-87
2022/10/25 01:24:41;;;;;;;2.38;0.50;;;14.10;99.90;;;;;;5090852;28;20028;-87
2022/10/25 01:27:15;;;;;;;3.17;0.85;;;14.10;99.90;;;;;;5091651;28;20161;-88
2022/10/25 01:29:53;;;;;;;4.00;0.57;;;14.20;99.90;;;;;;5083368;28;20126;-87
2022/10/25 01:32:40;;;;;;;5.25;0.50;;;14.20;99.90;;;;;;5084327;28;20453;-88
2022/10/25 01:35:29;;;;;;;1.10;0.55;;;14.20;99.90;;;;;;5102954;28;20024;-88
2022/10/25 01:38:04;;;;;;;2.22;0.50;;;14.20;99.90;;;;;;5085160;28;20028;-88
2022/10/25 01:40:51;;;;;;;1.95;0.85;;;14.30;99.90;;;;;;5084727;28;20465;-88
2022/10/25 01:43:22;;;;;;;3.95;0.80;;;14.30;99.90;;;;;;5084128;28;20027;-89
2022/10/25 01:45:58;;;;;;;3.70;0.70;;;14.30;99.90;;;;;;5084198;28;20243;-88
2022/10/25 01:48:39;;;;;;;1.08;0.57;;;14.30;99.90;;;;;;5083520;28;20097;-88
2022/10/25 01:51:09;;;;;;;1.13;0.40;;;14.30;99.90;;;;;;5085070;28;20032;-88
2022/10/25 01:53:49;;;;;;;2.88;0.52;;;14.20;99.90;;;;;;5087481;28;20073;-88
2022/10/25 01:56:23;;;;;;;2.42;1.05;;;14.20;99.90;;;;;;5088928;28;20026;-88
2022/10/25 01:59:23;;;;;;;6.22;0.82;;;14.30;99.90;;;;;;5105633;28;20093;-86
2022/10/25 02:02:32;;;;;;;3.38;0.60;;;14.30;99.90;;;;;;5087968;28;20039;-86
2022/10/25 02:05:13;;;;;;;3.20;1.15;;;14.20;99.90;;;;;;5077852;28;20120;-86
2022/10/25 02:07:52;;;;;;;5.22;0.65;;;14.20;99.90;;;;;;5086807;28;20032;-89
2022/10/25 02:10:30;;;;;;;3.42;0.80;;;14.20;99.90;;;;;;5089448;28;20039;-87
2022/10/25 02:13:25;;;;;;;5.40;0.93;;;14.20;99.90;;;;;;5088569;28;20077;-90
2022/10/25 02:16:06;;;;;;;3.85;0.90;;;14.20;99.90;;;;;;5087962;28;20483;-89
2022/10/25 02:18:39;;;;;;;1.77;0.90;;;14.20;99.90;;;;;;5088258;28;20028;-86
2022/10/25 02:21:05;;;;;;;3.85;0.90;;;14.20;99.90;;;;;;5088020;28;20091;-87
2022/10/25 02:23:34;;;;;;;3.92;1.80;;;14.20;99.90;;;;;;5086990;28;20027;-86
2022/10/25 02:26:02;;;;;;;4.53;0.98;;;14.20;99.90;;;;;;5087491;28;20488;-86
2022/10/25 02:28:29;;;;;;;4.93;0.90;;;14.20;99.90;;;;;;5089618;28;20070;-87
2022/10/25 02:30:57;;;;;;;4.75;1.20;;;14.20;99.90;;;;;;5094879;28;20385;-88
2022/10/25 02:33:23;;;;;;;3.85;1.23;;;14.20;99.90;;;;;;5096236;28;20241;-87
2022/10/25 02:36:24;;;;;;;3.47;0.75;;;14.20;99.90;;;;;;5096751;28;20377;-86
2022/10/25 02:38:52;;;;;;;1.80;0.80;;;14.20;99.90;;;;;;5052359;28;20036;-87
2022/10/25 02:44:39;;;;;;;3.85;0.90;;;14.20;99.90;;;;;;5105624;28;20062;-88
2022/10/25 02:47:05;;;;;;;2.60;0.90;;;14.20;99.90;;;;;;5095910;28;20055;-87
2022/10/25 02:49:31;;;;;;;4.35;1.20;;;14.20;99.90;;;;;;5095613;28;20023;-88
2022/10/25 02:51:56;;;;;;;7.43;1.05;;;14.20;99.90;;;;;;5095742;28;20090;-87
2022/10/25 02:54:22;;;;;;;4.15;1.40;;;14.20;99.90;;;;;;5105043;28;20500;-87
2022/10/25 02:56:51;;;;;;;5.43;1.20;;;14.20;99.90;;;;;;5095635;28;20024;-87
2022/10/25 02:59:18;;;;;;;2.10;1.40;;;14.20;99.90;;;;;;5105347;28;20028;-87
2022/10/25 03:01:43;;;;;;;1.98;1.02;;;14.20;99.90;;;;;;5104382;28;20063;-88
2022/10/25 03:04:09;;;;;;;5.40;1.42;;;14.20;99.90;;;;;;5093391;28;20123;-87
2022/10/25 03:06:34;;;;;;;3.22;1.02;;;14.10;99.90;;;;;;5094578;28;20028;-87
2022/10/25 03:09:00;;;;;;;4.85;1.13;;;14.20;99.90;;;;;;5095156;28;20490;-87
2022/10/25 03:11:25;;;;;;;3.58;1.02;;;14.20;99.90;;;;;;5095005;28;20027;-88
2022/10/25 03:13:51;;;;;;;2.03;1.00;;;14.10;99.90;;;;;;5095620;28;20035;-87
2022/10/25 03:16:17;;;;;;;3.58;1.13;;;14.10;99.90;;;;;;5095472;28;20115;-88
2022/10/25 03:18:42;;;;;;;3.60;1.30;;;14.10;99.90;;;;;;5095193;28;20058;-87
2022/10/25 03:21:08;;;;;;;1.88;1.00;;;14.10;99.90;;;;;;5105269;28;20032;-89
2022/10/25 03:23:33;;;;;;;3.97;0.95;;;14.10;99.90;;;;;;5095051;28;20048;-88
2022/10/25 03:26:00;;;;;;;6.85;1.50;;;14.10;99.90;;;;;;5094283;28;20503;-87
2022/10/25 03:28:27;;;;;;;3.72;0.98;;;14.00;99.90;;;;;;5088419;28;20044;-87
2022/10/25 03:30:54;;;;;;;2.97;1.10;;;14.00;99.90;;;;;;5083067;28;20105;-87
2022/10/25 03:33:19;;;;;;;3.00;1.42;;;14.00;99.90;;;;;;5082982;28;20115;-88
2022/10/25 03:35:49;;;;;;;2.83;0.98;;;14.00;99.90;;;;;;5083119;28;20127;-87
2022/10/25 03:38:14;;;;;;;6.28;1.75;;;14.10;99.90;;;;;;5083152;28;20028;-87
2022/10/25 03:40:41;;;;;;;7.57;1.63;;;14.00;99.90;;;;;;5082296;28;20036;-86
2022/10/25 03:43:06;;;;;;;4.28;1.38;;;14.00;99.90;;;;;;5081628;28;20021;-86
2022/10/25 03:45:32;;;;;;;5.28;1.10;;;14.10;99.90;;;;;;5083908;28;20043;-86
2022/10/25 03:47:57;;;;;;;3.53;1.00;;;14.00;99.90;;;;;;5081283;28;20029;-86
2022/10/25 03:50:23;;;;;;;2.13;0.90;;;14.10;99.90;;;;;;5075965;28;20028;-87
2022/10/25 03:52:49;;;;;;;4.03;1.10;;;14.00;99.90;;;;;;5083236;28;20024;-87
2022/10/25 03:55:15;;;;;;;4.20;1.13;;;14.00;99.90;;;;;;5080875;28;20444;-87
2022/10/25 03:57:40;;;;;;;4.55;1.17;;;13.90;99.90;;;;;;5083640;28;20056;-88
2022/10/25 04:00:06;;;;;;;3.38;1.15;;;14.00;99.90;;;;;;5082510;28;20032;-87
2022/10/25 04:02:32;;;;;;;5.05;1.10;;;13.90;99.90;;;;;;5079657;28;20446;-87
2022/10/25 04:04:57;;;;;;;4.22;0.90;;;13.90;99.90;;;;;;5081841;28;20044;-87
2022/10/25 04:07:23;;;;;;;3.15;0.93;;;13.90;99.90;;;;;;5081880;28;20189;-88
2022/10/25 04:09:49;;;;;;;2.58;1.00;;;13.80;99.90;;;;;;5081629;28;20291;-87
2022/10/25 04:12:14;;;;;;;2.25;0.90;;;13.80;99.90;;;;;;5081074;28;20543;-88
2022/10/25 04:14:40;;;;;;;2.45;1.00;;;13.80;99.90;;;;;;5082665;28;20058;-88
2022/10/25 04:17:06;;;;;;;3.25;1.20;;;13.80;99.90;;;;;;5081314;28;20024;-88
2022/10/25 04:19:31;;;;;;;4.80;1.10;;;13.80;99.90;;;;;;5082571;28;20386;-88
2022/10/25 04:21:57;;;;;;;3.17;0.93;;;13.80;99.90;;;;;;5081992;28;20028;-88
2022/10/25 04:24:22;;;;;;;6.22;1.30;;;13.80;99.90;;;;;;5081313;28;20032;-87
2022/10/25 04:26:48;;;;;;;5.10;1.45;;;13.70;99.90;;;;;;5083804;28;20027;-88
2022/10/25 04:29:14;;;;;;;2.88;1.20;;;13.70;99.90;;;;;;5098338;28;20659;-88
2022/10/25 04:31:40;;;;;;;4.00;1.00;;;13.70;99.90;;;;;;5084086;28;20026;-88
2022/10/25 04:34:05;;;;;;;2.92;1.45;;;13.70;99.90;;;;;;5084933;28;20110;-88
2022/10/25 04:36:31;;;;;;;5.72;1.30;;;13.70;99.90;;;;;;5102875;28;20466;-88
2022/10/25 04:38:57;;;;;;;4.50;1.00;;;13.70;99.90;;;;;;5084163;28;20081;-88
2022/10/25 04:41:22;;;;;;;1.65;1.10;;;13.70;99.90;;;;;;5103772;28;20050;-88
2022/10/25 04:43:50;;;;;;;4.55;1.40;;;13.70;99.90;;;;;;5084893;28;20449;-88
2022/10/25 04:46:16;;;;;;;4.88;1.35;;;13.70;99.90;;;;;;5084252;28;20028;-87
2022/10/25 04:48:42;;;;;;;3.05;1.42;;;13.70;99.90;;;;;;5080295;28;20205;-88
2022/10/25 04:51:09;;;;;;;2.75;0.82;;;13.80;99.90;;;;;;5084484;28;20062;-86
2022/10/25 04:53:35;;;;;;;6.75;1.25;;;13.80;99.90;;;;;;5083348;28;20559;-87
2022/10/25 04:56:04;;;;;;;3.80;1.05;;;13.80;99.90;;;;;;5084464;28;20115;-88
2022/10/25 04:58:29;;;;;;;5.97;1.15;;;13.80;99.90;;;;;;5084085;28;20032;-87
2022/10/25 05:01:05;;;;;;;6.03;1.48;;;13.80;99.90;;;;;;5084174;28;20020;-87
2022/10/25 05:03:31;;;;;;;2.90;1.20;;;13.80;99.90;;;;;;5084527;28;20021;-87
2022/10/25 05:06:12;;;;;;;2.58;1.30;;;13.80;99.90;;;;;;5084641;28;20059;-89
2022/10/25 05:08:39;;;;;;;5.50;1.40;;;13.80;99.90;;;;;;5084795;28;20080;-89
2022/10/25 05:11:07;;;;;;;4.40;1.30;;;13.90;99.90;;;;;;5102630;28;20031;-88
2022/10/25 05:13:36;;;;;;;5.10;1.58;;;13.90;99.90;;;;;;5083798;28;20122;-88
2022/10/25 05:16:02;;;;;;;5.15;1.38;;;13.90;99.90;;;;;;5102683;28;20062;-89
2022/10/25 05:18:30;;;;;;;4.97;1.30;;;13.90;99.90;;;;;;5102205;28;20056;-88
2022/10/25 05:20:58;;;;;;;5.32;1.20;;;14.00;99.90;;;;;;5084521;28;20153;-89
2022/10/25 05:23:25;;;;;;;3.33;1.10;;;14.00;99.90;;;;;;5085078;28;20028;-85
2022/10/25 05:26:22;;;;;;;8.55;1.38;;;13.90;99.90;;;;;;5084072;28;20089;-85
2022/10/25 05:28:51;;;;;;;4.45;1.38;;;14.00;99.90;;;;;;5104724;28;20047;-85
2022/10/25 05:31:23;;;;;;;4.35;1.42;;;14.00;99.90;;;;;;5088971;28;20019;-85
2022/10/25 05:33:51;;;;;;;4.72;1.25;;;14.00;99.90;;;;;;5089258;28;20024;-85
2022/10/25 05:36:18;;;;;;;30.98;1.77;;;14.00;99.90;;;;;;5105688;28;20035;-85
2022/10/25 05:38:43;;;;;;;5.80;1.27;;;13.90;99.90;;;;;;5087091;28;20507;-85
2022/10/25 05:41:11;;;;;;;4.93;1.20;;;14.00;99.90;;;;;;5088348;28;20025;-85
2022/10/25 05:43:37;;;;;;;3.38;1.05;;;14.00;99.90;;;;;;5090402;28;20027;-85
2022/10/25 05:46:22;;;;;;;7.60;1.20;;;14.00;99.90;;;;;;5088135;28;20035;-85
2022/10/25 05:48:49;;;;;;;5.63;1.08;;;14.00;99.90;;;;;;5088134;28;20046;-86
2022/10/25 05:51:27;;;;;;;4.82;1.30;;;14.10;99.90;;;;;;5086655;28;20110;-86
2022/10/25 05:53:54;;;;;;;3.67;1.48;;;14.10;99.90;;;;;;5088148;28;20082;-86
2022/10/25 05:56:23;;;;;;;6.00;1.35;;;14.00;99.90;;;;;;5089016;28;20024;-86
2022/10/25 05:58:49;;;;;;;4.18;1.60;;;14.00;99.90;;;;;;5089027;28;20163;-89
2022/10/25 06:01:17;;;;;;;5.70;1.60;;;14.00;99.90;;;;;;5087065;28;20157;-88
2022/10/25 06:03:46;;;;;;;8.55;1.48;;;14.00;99.90;;;;;;5086146;28;20351;-88
2022/10/25 06:06:12;;;;;;;6.90;1.23;;;14.00;99.90;;;;;;5085506;28;20070;-88
2022/10/25 06:08:38;;;;;;;6.47;1.10;;;13.90;99.90;;;;;;5087501;28;20024;-89
2022/10/25 06:11:09;;;;;;;5.25;1.10;;;13.90;99.90;;;;;;5088070;28;20092;-89
2022/10/25 06:13:35;;;;;;;3.80;1.38;;;13.90;99.90;;;;;;5091872;28;20035;-88
2022/10/25 06:16:05;;;;;;;2.00;1.00;;;13.90;99.90;;;;;;5097979;28;20032;-88
2022/10/25 06:18:32;;;;;;;2.72;1.17;;;13.90;99.90;;;;;;5111614;28;20072;-89
2022/10/25 06:21:03;;;;;;;5.57;1.20;;;13.90;99.90;;;;;;5090890;28;20119;-88
2022/10/25 06:23:34;;;;;;;3.87;1.07;;;13.80;99.90;;;;;;5095892;28;20115;-88
2022/10/25 06:26:03;;;;;;;4.95;1.58;;;13.90;99.90;;;;;;5096246;28;20272;-89
2022/10/25 06:28:30;;;;;;;4.78;1.23;;;13.90;99.90;;;;;;5120307;28;20071;-88
2022/10/25 06:31:07;;;;;;;10.15;1.58;;;13.90;99.90;;;;;;5106086;28;20028;-89
2022/10/25 06:33:33;;;;;;;5.68;1.38;;;13.90;99.90;;;;;;5096596;28;20024;-88
2022/10/25 06:36:00;;;;;;;7.03;1.42;;;13.90;99.90;;;;;;5088337;28;20038;-88
2022/10/25 06:38:27;;;;;;;6.70;1.48;;;13.80;99.90;;;;;;5086997;28;20443;-87
2022/10/25 06:41:01;;;;;;;3.15;1.00;;;13.90;99.90;;;;;;5087373;28;20028;-87
2022/10/25 06:43:27;;;;;;;3.92;1.30;;;13.90;99.90;;;;;;5087606;28;20024;-87
2022/10/25 06:45:53;;;;;;;5.85;1.50;;;13.80;99.90;;;;;;5087517;28;20057;-87
2022/10/25 06:48:19;;;;;;;5.50;1.60;;;13.90;99.90;;;;;;5088113;28;20024;-86
2022/10/25 06:50:45;;;;;;;3.97;1.15;;;13.80;99.90;;;;;;5085485;28;20059;-87
2022/10/25 06:53:10;;;;;;;11.43;2.33;;;13.80;99.90;;;;;;5089097;28;20378;-89
2022/10/25 06:55:36;;;;;;;6.13;2.25;;;13.80;99.90;;;;;;5090046;28;20112;-87
2022/10/25 06:58:02;;;;;;;9.70;2.72;;;13.80;99.90;;;;;;5109463;28;20027;-87
2022/10/25 07:00:27;;;;;;;7.60;2.45;;;13.80;99.90;;;;;;5086258;28;20032;-86
2022/10/25 07:02:55;;;;;;;9.05;3.10;;;13.80;99.90;;;;;;5087136;28;20115;-87
2022/10/25 07:05:20;;;;;;;4.55;2.30;;;13.90;99.90;;;;;;5087278;28;20028;-87
2022/10/25 07:07:46;;;;;;;6.00;1.70;;;13.90;99.90;;;;;;5087331;28;20027;-88
2022/10/25 07:10:12;;;;;;;5.10;1.27;;;13.90;99.90;;;;;;5086696;28;20031;-86
2022/10/25 07:12:37;;;;;;;5.18;2.10;;;14.00;99.90;;;;;;5104010;28;20095;-86
2022/10/25 07:15:04;;;;;;;5.68;1.58;;;14.00;99.90;;;;;;5087885;28;20044;-86
2022/10/25 07:17:29;;;;;;;3.95;1.55;;;14.00;99.90;;;;;;5086489;28;20020;-86
2022/10/25 07:19:56;;;;;;;8.30;1.60;;;14.00;99.90;;;;;;5086353;28;20210;-87
2022/10/25 07:22:22;;;;;;;5.88;1.33;;;14.00;99.90;;;;;;5086585;28;20031;-86
2022/10/25 07:24:48;;;;;;;6.53;1.35;;;14.10;99.90;;;;;;5086445;28;20111;-87
2022/10/25 07:27:14;;;;;;;4.50;1.50;;;14.00;99.90;;;;;;5085663;28;20048;-88
2022/10/25 07:29:40;;;;;;;7.50;1.30;;;14.10;99.90;;;;;;5093910;28;20048;-89
2022/10/25 07:32:06;;;;;;;7.03;1.40;;;14.10;99.90;;;;;;5096069;28;20020;-89
2022/10/25 07:34:32;;;;;;;4.38;1.15;;;14.20;99.90;;;;;;5104919;28;20035;-89
2022/10/25 07:36:57;;;;;;;4.85;1.08;;;14.20;99.90;;;;;;5094897;28;20055;-89
2022/10/25 07:39:23;;;;;;;7.72;1.25;;;14.20;99.90;;;;;;5094797;28;20043;-89
2022/10/25 07:41:49;;;;;;;5.45;1.10;;;14.20;99.90;;;;;;5094467;28;20116;-88
2022/10/25 07:44:15;;;;;;;6.70;1.15;;;14.30;99.90;;;;;;5103877;28;20016;-88
2022/10/25 07:46:41;;;;;;;11.02;1.50;;;14.30;99.90;;;;;;5093699;28;20032;-88
2022/10/25 07:49:06;;;;;;;5.93;1.33;;;14.40;99.90;;;;;;5094500;28;20449;-89
2022/10/25 07:51:32;;;;;;;5.32;1.20;;;14.40;99.90;;;;;;5093855;28;20024;-88
2022/10/25 07:53:58;;;;;;;2.55;1.00;;;14.50;99.90;;;;;;5094071;28;20024;-88
2022/10/25 07:56:23;;;;;;;4.30;1.23;;;14.50;99.90;;;;;;5094476;28;20030;-88
2022/10/25 07:58:50;;;;;;;4.25;1.10;;;14.50;99.90;;;;;;5094383;28;20031;-88
2022/10/25 08:01:23;;;;;;;4.18;1.15;;;14.60;99.90;;;;;;5093013;28;20027;-88
2022/10/25 08:03:50;;;;;;;5.63;1.05;;;14.60;99.90;;;;;;5106267;28;20076;-89
2022/10/25 08:06:16;;;;;;;6.85;1.35;;;14.60;99.90;;;;;;5093920;28;20031;-87
2022/10/25 08:08:42;;;;;;;4.47;1.30;;;14.70;99.90;;;;;;5107213;28;20353;-88
2022/10/25 08:11:08;;;;;;;2.40;1.15;;;14.70;99.90;;;;;;5094112;28;20019;-89
2022/10/25 08:13:38;;;;;;;4.30;1.00;;;14.70;99.90;;;;;;5094183;28;20147;-89
2022/10/25 08:16:04;;;;;;;5.35;1.38;;;14.80;99.90;;;;;;5093958;28;20024;-90
2022/10/25 08:18:30;;;;;;;5.68;1.10;;;14.80;99.90;;;;;;5094063;28;20490;-89
2022/10/25 08:20:56;;;;;;;8.15;0.98;;;14.90;99.90;;;;;;5092221;28;20457;-90
2022/10/25 08:23:24;;;;;;;5.55;0.93;;;14.90;99.90;;;;;;5095161;28;20075;-87
2022/10/25 08:25:49;;;;;;;8.25;1.27;;;15.00;99.90;;;;;;5093188;28;20031;-89
2022/10/25 08:28:15;;;;;;;7.10;1.05;;;15.00;99.90;;;;;;5089092;28;20048;-90
2022/10/25 08:30:41;;;;;;;3.75;0.80;;;15.10;99.90;;;;;;5087941;28;20088;-88
2022/10/25 08:33:07;;;;;;;6.38;1.00;;;15.20;99.90;;;;;;5084776;28;20047;-88
2022/10/25 08:35:32;;;;;;;1.75;0.73;;;15.20;99.90;;;;;;5082473;28;20050;-87
2022/10/25 08:38:02;;;;;;;4.68;0.93;;;15.20;99.90;;;;;;5082958;28;20028;-87
2022/10/25 08:40:58;;;;;;;4.38;1.30;;;15.20;99.90;;;;;;5084561;28;20036;-87
2022/10/25 08:43:47;;;;;;;5.30;0.95;;;15.30;99.90;;;;;;5084556;28;20036;-88
2022/10/25 08:46:19;;;;;;;4.45;0.95;;;15.30;99.90;;;;;;5083618;28;20078;-88
2022/10/25 08:48:51;;;;;;;6.45;1.27;;;15.30;99.90;;;;;;5082613;28;20115;-89
2022/10/25 08:51:24;;;;;;;;;;;15.40;99.90;;;;;;5082895;28;20025;-88
2022/10/25 08:53:53;;;;;;;5.43;0.77;;;15.40;99.90;;;;;;5082180;28;19905;-85
2022/10/25 08:56:19;;;;;;;4.00;1.15;;;15.50;99.90;;;;;;5083449;28;20036;-87
2022/10/25 08:58:53;;;;;;;3.22;1.00;;;15.50;99.90;;;;;;5080770;28;20059;-87
2022/10/25 09:01:37;;;;;;;2.75;0.60;;;15.50;99.90;;;;;;5081577;28;20035;-88
2022/10/25 09:04:03;;;;;;;6.60;1.30;;;15.60;99.90;;;;;;5082324;28;20029;-88
2022/10/25 09:06:40;;;;;;;6.90;0.80;;;15.70;99.90;;;;;;5082600;28;20028;-85
2022/10/25 09:09:17;;;;;;;5.97;1.10;;;15.80;99.90;;;;;;5081878;28;20086;-85
2022/10/25 09:12:02;;;;;;;5.18;1.00;;;15.90;99.90;;;;;;5081514;28;20024;-82
2022/10/25 09:14:49;;;;;;;10.60;0.93;;;16.10;99.90;;;;;;5079131;28;20025;-85
2022/10/25 09:17:21;;;;;;;7.28;0.80;;;16.20;99.90;;;;;;5082720;28;20141;-79
2022/10/25 09:20:01;;;;;;;8.18;1.10;;;16.30;99.90;;;;;;5081257;28;20036;-82
2022/10/25 09:22:29;;;;;;;4.18;0.77;;;16.40;99.90;;;;;;5080014;28;20168;-83
2022/10/25 09:25:21;;;;;;;4.30;0.80;;;16.40;99.90;;;;;;5080015;28;21180;-80
2022/10/25 09:28:29;;;;;;;5.85;0.75;;;16.30;99.90;;;;;;5082358;28;20056;-81
2022/10/25 09:30:57;;;;;;;5.50;0.80;;;16.20;99.90;;;;;;5090818;28;20032;-86
2022/10/25 09:33:29;;;;;;;5.90;0.75;;;16.20;99.90;;;;;;5090467;28;20577;-82
2022/10/25 09:35:57;;;;;;;4.95;0.63;;;16.10;99.90;;;;;;5089816;28;20029;-91
2022/10/25 09:38:25;;;;;;;2.50;0.88;;;16.20;99.90;;;;;;5090124;28;20032;-83
2022/10/25 09:41:04;;;;;;;4.90;1.40;;;16.30;99.90;;;;;;5090935;28;20054;-84
2022/10/25 09:43:36;;;;;;;8.18;1.05;;;16.30;99.90;;;;;;5090641;28;20458;-84
2022/10/25 09:46:10;;;;;;;1.92;0.70;;;16.30;99.90;;;;;;5089954;28;20028;-83
2022/10/25 09:48:53;;;;;;;7.05;1.08;;;16.30;99.90;;;;;;5090546;28;20032;-84
2022/10/25 09:51:45;;;;;;;2.78;0.73;;;16.30;99.90;;;;;;5090438;28;20084;-83
2022/10/25 09:54:19;;;;;;;4.90;0.68;;;16.40;99.90;;;;;;5090839;28;20031;-83
2022/10/25 09:56:44;;;;;;;8.48;0.80;;;16.50;99.90;;;;;;5090091;28;20544;-86
2022/10/25 09:59:14;;;;;;;2.38;0.80;;;16.60;99.90;;;;;;5093200;28;20106;-87
2022/10/25 10:01:40;;;;;;;4.82;1.05;;;16.70;99.90;;;;;;5091225;28;20501;-83
2022/10/25 10:04:33;;;;;;;5.22;0.70;;;16.70;99.90;;;;;;5090917;28;20675;-85
2022/10/25 10:07:05;;;;;;;5.22;0.60;;;16.80;99.90;;;;;;5090007;28;20318;-84
2022/10/25 10:09:33;;;;;;;4.35;0.60;;;16.80;99.90;;;;;;5090814;28;20032;-84
2022/10/25 10:12:04;;;;;;;4.18;0.77;;;16.80;99.90;;;;;;5091882;28;20030;-85
2022/10/25 10:14:36;;;;;;;3.60;0.75;;;16.80;99.90;;;;;;5094204;28;20032;-85
2022/10/25 10:17:04;;;;;;;5.38;0.95;;;16.80;99.90;;;;;;5094212;28;20119;-83
2022/10/25 10:19:30;;;;;;;3.67;0.55;;;16.80;99.90;;;;;;5094748;28;20480;-83
2022/10/25 10:22:08;;;;;;;6.22;0.68;;;16.90;99.90;;;;;;5093894;28;20036;-83
2022/10/25 10:24:40;;;;;;;3.95;0.70;;;16.90;99.90;;;;;;5095014;28;20048;-85
2022/10/25 10:27:22;;;;;;;8.43;0.80;;;17.10;99.90;;;;;;5093950;28;20659;-83
2022/10/25 10:29:58;;;;;;;7.30;0.60;;;17.10;99.90;;;;;;5094797;28;20478;-84
2022/10/25 10:32:39;;;;;;;4.78;0.65;;;17.20;99.90;;;;;;5097198;28;20059;-85
2022/10/25 10:35:11;;;;;;;4.60;0.63;;;17.20;99.90;;;;;;5096275;28;20077;-85
2022/10/25 10:37:37;;;;;;;5.30;0.75;;;17.30;99.90;;;;;;5094701;28;20119;-82
2022/10/25 10:40:23;;;;;;;5.28;0.70;;;17.20;99.90;;;;;;5093342;28;20521;-82
2022/10/25 10:42:48;;;;;;;6.80;0.88;;;17.30;99.90;;;;;;5094209;28;20032;-84
2022/10/25 10:45:19;;;;;;;6.22;0.95;;;17.30;99.90;;;;;;5094367;28;20028;-84
2022/10/25 10:47:47;;;;;;;3.90;0.63;;;17.30;99.90;;;;;;5094457;28;20033;-83
2022/10/25 10:50:22;;;;;;;1.83;0.40;;;17.20;99.90;;;;;;5094095;28;20028;-84
2022/10/25 10:53:05;;;;;;;3.63;0.45;;;17.30;99.90;;;;;;5093161;28;20063;-83
2022/10/25 10:55:42;;;;;;;1.88;0.60;;;17.30;99.90;;;;;;5093517;28;20124;-83
2022/10/25 10:58:14;;;;;;;5.97;0.80;;;17.40;99.90;;;;;;5094175;28;20028;-84
2022/10/25 11:00:52;;;;;;;4.50;0.50;;;17.30;99.90;;;;;;5094040;28;20042;-83
2022/10/25 11:03:57;;;;;;;4.80;0.50;;;17.30;99.90;;;;;;5093659;28;20036;-86
2022/10/25 11:06:27;;;;;;;5.13;0.50;;;17.30;99.90;;;;;;5031408;28;20040;-82
2022/10/25 11:09:18;;;;;;;5.10;0.60;;;17.50;99.90;;;;;;5072345;28;20044;-90
2022/10/25 11:12:01;;;;;;;6.22;0.93;;;17.50;99.90;;;;;;5092688;28;20500;-89
2022/10/25 11:14:27;;;;;;;3.95;0.60;;;17.60;99.90;;;;;;5093002;28;20074;-88
2022/10/25 11:17:08;;;;;;;3.75;0.77;;;17.60;99.90;;;;;;5092815;28;20071;-88
2022/10/25 11:19:40;;;;;;;4.55;0.93;;;17.70;99.90;;;;;;5093852;28;20082;-87
2022/10/25 11:22:14;;;;;;;;;;;17.80;99.90;;;;;;5092981;28;20076;-84
2022/10/25 11:25:00;;;;;;;7.22;0.75;;;17.90;99.90;;;;;;5092324;28;19908;-86
2022/10/25 11:27:56;;;;;;;9.75;0.93;;;17.80;99.90;;;;;;5093184;28;20020;-88
2022/10/25 11:30:25;;;;;;;3.95;0.70;;;17.90;99.90;;;;;;5104365;28;20032;-87
2022/10/25 11:33:07;;;;;;;2.58;0.45;;;18.00;99.90;;;;;;5103887;28;20031;-83
2022/10/25 11:35:42;;;;;;;;;;;18.10;99.90;;;;;;5086021;28;20028;-85
2022/10/25 11:38:33;;;;;;;11.73;0.90;;;18.10;99.90;;;;;;5086189;28;19912;-85
2022/10/25 11:41:14;;;;;;;5.38;0.80;;;18.10;99.90;;;;;;5105058;28;20110;-88
2022/10/25 11:43:59;;;;;;;5.13;0.60;;;18.10;99.90;;;;;;5089162;28;20032;-89
2022/10/25 11:46:46;;;;;;;4.65;0.82;;;18.00;99.90;;;;;;5089313;28;20043;-86
2022/10/25 11:49:50;;;;;;;4.35;1.08;;;18.10;99.90;;;;;;5094398;28;20501;-87
2022/10/25 11:52:58;;;;;;;5.78;0.50;;;18.20;99.90;;;;;;4987227;28;20204;-87
2022/10/25 11:55:48;;;;;;;3.70;0.80;;;18.50;99.90;;;;;;5102196;28;20028;-88
2022/10/25 11:58:36;;;;;;;6.57;1.52;;;18.60;99.90;;;;;;5086751;28;20028;-90
2022/10/25 12:01:24;;;;;;;3.90;0.70;;;18.70;99.90;;;;;;5086629;28;20028;-89
2022/10/25 12:04:17;;;;;;;5.22;1.05;;;18.80;99.90;;;;;;5087176;28;20032;-91
2022/10/25 12:07:07;;;;;;;5.15;0.90;;;19.10;99.90;;;;;;5087250;28;20031;-89
2022/10/25 12:09:36;;;;;;;5.82;0.52;;;19.50;99.90;;;;;;5108009;28;20050;-88
2022/10/25 12:12:07;;;;;;;6.53;0.85;;;19.30;99.90;;;;;;5088376;28;20031;-86
2022/10/25 12:14:39;;;;;;;4.17;1.07;;;19.00;99.90;;;;;;5087590;28;20115;-87
2022/10/25 12:17:36;;;;;;;5.68;0.88;;;19.10;99.90;;;;;;5087838;28;20475;-90
2022/10/25 12:20:05;;;;;;;9.40;0.80;;;19.60;99.90;;;;;;5085060;28;20127;-86
2022/10/25 12:22:44;;;;;;;4.75;0.75;;;19.90;99.90;;;;;;5087801;28;20091;-89
2022/10/25 12:25:36;;;;;;;7.38;1.20;;;20.30;99.90;;;;;;5088906;28;20051;-87
2022/10/25 12:28:18;;;;;;;;;;;20.80;99.90;;;;;;5095096;28;20040;-86
2022/10/25 12:30:44;;;;;;;5.82;0.73;;;21.00;99.90;;;;;;5087912;28;19939;-86
2022/10/25 12:33:47;;;;;;;7.32;0.80;;;20.60;99.90;;;;;;5103692;28;20055;-88
2022/10/25 12:36:25;;;;;;;5.28;0.93;;;20.20;99.90;;;;;;5085694;28;20051;-84
2022/10/25 12:38:51;;;;;;;6.57;1.38;;;20.10;99.90;;;;;;5087198;28;20019;-89
2022/10/25 12:41:25;;;;;;;7.90;1.30;;;19.90;99.90;;;;;;5105266;28;20481;-89
2022/10/25 12:44:16;;;;;;;6.57;1.20;;;19.70;99.90;;;;;;5086435;28;20027;-89
2022/10/25 12:47:10;;;;;;;5.45;0.90;;;19.80;99.90;;;;;;5103430;28;20039;-84
2022/10/25 12:49:56;;;;;;;4.72;0.85;;;21.10;99.90;;;;;;5105773;28;20441;-85
2022/10/25 12:52:37;;;;;;;7.90;1.05;;;22.60;99.90;;;;;;5093102;28;20537;-91
2022/10/25 12:55:24;;;;;;;3.80;0.73;;;22.90;99.90;;;;;;5094270;28;20020;-86
2022/10/25 12:57:53;;;;;;;4.38;0.90;;;24.10;99.90;;;;;;5107972;28;20030;-80
2022/10/25 13:00:21;;;;;;;4.68;0.80;;;24.70;97.70;;;;;;5091023;28;20027;-91
2022/10/25 13:03:08;;;;;;;4.85;0.85;;;25.30;96.10;;;;;;5109507;28;20223;-88
2022/10/25 13:06:05;;;;;;;3.38;0.70;;;25.90;93.90;;;;;;5086147;28;20080;-90
2022/10/25 13:08:32;;;;;;;4.63;0.90;;;26.60;90.70;;;;;;5087610;28;20026;-91
2022/10/25 13:11:04;;;;;;;5.35;0.85;;;26.70;90.20;;;;;;5087252;28;20035;-89
2022/10/25 13:13:32;;;;;;;4.03;0.98;;;27.10;87.10;;;;;;5106384;28;20106;-89
2022/10/25 13:16:01;;;;;;;3.40;0.65;;;27.50;84.80;;;;;;5085604;28;20039;-88
2022/10/25 13:18:33;;;;;;;6.05;0.88;;;27.80;82.40;;;;;;5085949;28;20028;-87